KAUS

Austin-Bergstrom International Airport

Austin, Texas, USA
METAR KAUS 170253Z 01012KT 7SM OVC008 11/09 A3021 RMK AO2 SLP232 T01110094 51011
Observed Flight Rules
Oct-17 @ 02:53 UTC (24 minutes ago) Instrument Flight Rules
Wind Visibility Clouds
10° at 12 knots 7 miles
  • Overcast at 800' AGL
Temperatures Readings
Current 11°C / 52°F
Dewpoint 9°C / 48°F
Humidity 88%
Altimeter 30.21" Hg
Pressure 1023.2 hPa
Elevation 166
METAR KAUS 170253Z 01012KT 7SM OVC008 11/09 A3021 RMK AO2 SLP232 T01110094 51011
Observed Flight Rules
Oct-17 @ 02:53 UTC
(24 minutes ago)
IFR
Wind Visibility
10° at 12 knots 7 miles
Clouds
  • Overcast at 800' AGL
Temperature Dewpoint
11°C / 52°F 9°C / 48°F
Humidity Altimeter Pressure
88% 30.21" Hg 1023.2 hPa